Time;durP1;ratioP1;P1;durP2;ratioP2;P2;SDS_P1;SDS_P2;PMS_P1;PMS_P2;Temp;Humidity;BMP_temperature;BMP_pressure;BME280_temperature;BME280_humidity;BME280_pressure;Samples;Min_cycle;Max_cycle;Signal;HPM_P1;HPM_P2
2023/03/11 00:00:29;;;;;;;1.10;0.10;;;7.30;73.20;;;;;;4987556;28;87741;-68
2023/03/11 00:02:56;;;;;;;1.02;0.10;;;7.30;73.40;;;;;;4975159;28;87491;-69
2023/03/11 00:05:26;;;;;;;0.75;0.10;;;7.30;73.90;;;;;;4979700;28;87824;-68
2023/03/11 00:07:52;;;;;;;1.33;0.10;;;7.30;73.00;;;;;;4992286;28;91759;-68
2023/03/11 00:10:30;;;;;;;1.55;0.30;;;7.30;73.10;;;;;;4983800;28;88349;-67
2023/03/11 00:12:58;;;;;;;2.25;0.20;;;7.30;73.70;;;;;;4980588;28;86973;-70
2023/03/11 00:15:24;;;;;;;1.20;0.30;;;7.30;73.30;;;;;;4979302;28;87657;-70
2023/03/11 00:17:50;;;;;;;2.42;0.25;;;7.40;72.10;;;;;;4979974;28;87606;-69
2023/03/11 00:20:23;;;;;;;0.65;0.10;;;7.40;72.30;;;;;;4980733;28;87909;-69
2023/03/11 00:22:49;;;;;;;2.17;0.15;;;7.30;72.10;;;;;;4979190;28;87510;-71
2023/03/11 00:25:16;;;;;;;1.00;0.20;;;7.30;72.20;;;;;;4983529;28;86731;-70
2023/03/11 00:27:42;;;;;;;1.42;0.13;;;7.30;72.30;;;;;;4980183;28;87640;-73
2023/03/11 00:30:09;;;;;;;1.50;0.20;;;7.40;72.60;;;;;;4977410;28;89530;-70
2023/03/11 00:32:34;;;;;;;1.10;0.20;;;7.30;72.70;;;;;;4973374;28;88033;-70
2023/03/11 00:35:00;;;;;;;1.30;0.22;;;7.40;73.10;;;;;;4986123;28;87397;-70
2023/03/11 00:37:26;;;;;;;1.17;0.20;;;7.30;73.30;;;;;;4974228;28;87426;-70
2023/03/11 00:39:51;;;;;;;1.92;0.30;;;7.30;72.90;;;;;;4986041;28;87844;-70
2023/03/11 00:42:17;;;;;;;1.45;0.20;;;7.30;72.80;;;;;;4978139;28;87774;-71
2023/03/11 00:44:43;;;;;;;0.70;0.20;;;7.40;72.60;;;;;;4976315;28;88353;-70
2023/03/11 00:47:10;;;;;;;2.78;0.10;;;7.40;73.00;;;;;;4970459;28;87545;-69
2023/03/11 00:49:38;;;;;;;1.80;0.28;;;7.30;73.50;;;;;;4979637;28;87073;-72
2023/03/11 00:52:04;;;;;;;1.48;0.20;;;7.40;73.20;;;;;;4975081;28;88829;-70
2023/03/11 00:54:30;;;;;;;2.88;0.20;;;7.40;72.80;;;;;;4977747;28;87245;-70
2023/03/11 00:56:56;;;;;;;1.08;0.20;;;7.40;73.70;;;;;;4975616;28;89107;-70
2023/03/11 00:59:22;;;;;;;1.20;0.13;;;7.30;74.10;;;;;;4979596;28;88087;-71
2023/03/11 01:01:47;;;;;;;2.05;0.13;;;7.30;74.30;;;;;;4981136;28;87353;-70
2023/03/11 01:04:13;;;;;;;2.15;0.30;;;7.30;74.70;;;;;;4983624;28;87176;-71
2023/03/11 01:06:39;;;;;;;1.58;0.20;;;7.30;74.30;;;;;;4978558;28;88744;-71
2023/03/11 01:09:05;;;;;;;1.20;0.10;;;7.30;74.40;;;;;;4979045;28;87833;-70
2023/03/11 01:11:30;;;;;;;1.20;0.30;;;7.30;75.40;;;;;;4976416;28;87275;-70
2023/03/11 01:13:57;;;;;;;1.77;0.30;;;7.30;74.80;;;;;;4987095;28;86748;-71
2023/03/11 01:16:22;;;;;;;4.50;0.20;;;7.30;74.70;;;;;;4971904;28;88108;-70
2023/03/11 01:18:48;;;;;;;1.00;0.20;;;7.20;75.40;;;;;;4974287;28;87143;-70
2023/03/11 01:21:14;;;;;;;1.15;0.25;;;7.10;73.70;;;;;;4978697;28;88026;-70
2023/03/11 01:23:40;;;;;;;0.80;0.20;;;7.10;75.70;;;;;;4974019;28;87916;-70
2023/03/11 01:26:06;;;;;;;1.88;0.30;;;7.10;76.00;;;;;;4984651;28;87619;-70
2023/03/11 01:28:32;;;;;;;2.33;0.40;;;7.10;75.70;;;;;;4993691;28;87329;-71
2023/03/11 01:30:58;;;;;;;1.52;0.30;;;7.00;75.60;;;;;;4978530;28;88602;-71
2023/03/11 01:33:23;;;;;;;2.53;0.40;;;7.00;77.00;;;;;;4976454;28;87392;-72
2023/03/11 01:35:49;;;;;;;1.33;0.35;;;7.10;76.30;;;;;;4974992;28;88145;-70
2023/03/11 01:38:16;;;;;;;3.88;0.20;;;7.10;75.90;;;;;;4988807;28;88365;-71
2023/03/11 01:40:45;;;;;;;1.00;0.20;;;7.10;75.60;;;;;;4969989;28;87174;-71
2023/03/11 01:43:37;;;;;;;1.45;0.30;;;7.00;76.00;;;;;;4977524;28;87796;-70
2023/03/11 01:46:15;;;;;;;2.45;0.20;;;6.90;76.30;;;;;;4987666;28;88522;-73
2023/03/11 01:48:48;;;;;;;2.17;0.40;;;6.90;76.20;;;;;;4986755;28;87756;-69
2023/03/11 01:51:18;;;;;;;9.45;0.50;;;6.90;76.40;;;;;;4980250;28;87447;-70
2023/03/11 01:53:44;;;;;;;1.25;0.30;;;6.90;77.30;;;;;;4981320;28;87098;-69
2023/03/11 01:56:12;;;;;;;1.30;0.28;;;7.00;76.60;;;;;;4981186;28;87498;-69
2023/03/11 01:58:43;;;;;;;1.25;0.30;;;7.00;76.20;;;;;;4978748;28;87620;-69
2023/03/11 02:01:10;;;;;;;1.92;0.35;;;6.90;77.70;;;;;;4982294;28;87105;-71
2023/03/11 02:03:39;;;;;;;1.95;0.32;;;6.90;78.60;;;;;;4988111;28;86379;-69
2023/03/11 02:06:18;;;;;;;1.20;0.20;;;6.90;79.50;;;;;;4978479;28;88181;-69
2023/03/11 02:08:44;;;;;;;1.77;0.40;;;6.80;79.00;;;;;;4986418;28;88176;-71
2023/03/11 02:11:23;;;;;;;2.85;0.30;;;6.70;79.80;;;;;;4994336;28;88621;-70
2023/03/11 02:13:51;;;;;;;1.95;0.30;;;6.80;80.20;;;;;;4977315;28;87358;-69
2023/03/11 02:16:17;;;;;;;1.48;0.30;;;6.80;79.90;;;;;;4988206;28;88222;-69
2023/03/11 02:18:43;;;;;;;2.22;0.30;;;6.80;78.90;;;;;;4985358;28;87445;-70
2023/03/11 02:21:17;;;;;;;1.13;0.30;;;6.70;79.10;;;;;;4986957;28;87049;-70
2023/03/11 02:23:52;;;;;;;1.85;0.50;;;6.70;78.50;;;;;;4982836;28;87556;-70
2023/03/11 02:26:40;;;;;;;1.95;0.40;;;6.60;79.70;;;;;;4991043;28;88998;-70
2023/03/11 02:29:08;;;;;;;2.45;0.40;;;6.60;81.20;;;;;;4978506;28;88583;-69
2023/03/11 02:31:37;;;;;;;1.73;0.35;;;6.60;81.20;;;;;;4979139;28;87408;-69
2023/03/11 02:34:04;;;;;;;1.88;0.43;;;6.70;80.60;;;;;;4981993;28;87243;-69
2023/03/11 02:36:36;;;;;;;2.05;0.43;;;6.80;81.00;;;;;;4985441;28;88471;-69
2023/03/11 02:39:03;;;;;;;1.67;0.38;;;6.80;79.90;;;;;;4981281;28;88859;-70
2023/03/11 02:41:30;;;;;;;2.75;0.32;;;6.70;81.00;;;;;;4995364;28;87004;-71
2023/03/11 02:43:57;;;;;;;2.20;0.47;;;6.70;81.20;;;;;;4980268;28;87655;-70
2023/03/11 02:46:23;;;;;;;4.25;1.05;;;6.70;81.80;;;;;;4985272;28;87543;-71
2023/03/11 02:48:50;;;;;;;2.58;0.55;;;6.70;82.00;;;;;;4983403;28;87267;-72
2023/03/11 02:51:16;;;;;;;2.42;0.40;;;6.80;82.00;;;;;;4983966;28;87554;-70
2023/03/11 02:53:48;;;;;;;1.85;0.32;;;6.80;81.60;;;;;;4981960;28;86681;-69
2023/03/11 02:56:14;;;;;;;2.17;0.40;;;6.70;80.20;;;;;;4981783;28;87988;-71
2023/03/11 02:58:40;;;;;;;1.55;0.57;;;6.70;81.50;;;;;;4984802;28;88127;-73
2023/03/11 03:01:05;;;;;;;2.30;0.70;;;6.70;81.90;;;;;;4979847;28;88006;-70
2023/03/11 03:03:31;;;;;;;1.75;0.35;;;6.80;81.60;;;;;;4981312;28;87477;-72
2023/03/11 03:05:57;;;;;;;1.90;0.45;;;6.80;81.80;;;;;;4976361;28;87717;-71
2023/03/11 03:08:22;;;;;;;1.85;0.55;;;6.80;80.10;;;;;;4984492;28;87286;-71
2023/03/11 03:10:48;;;;;;;2.00;0.50;;;6.70;80.40;;;;;;4977352;28;87577;-71
2023/03/11 03:13:14;;;;;;;4.72;0.70;;;6.60;81.90;;;;;;4986014;28;87028;-70
2023/03/11 03:15:39;;;;;;;3.10;0.43;;;6.60;82.80;;;;;;4979199;28;87677;-72
2023/03/11 03:18:05;;;;;;;1.38;0.40;;;6.60;83.30;;;;;;4975038;28;87883;-71
2023/03/11 03:20:31;;;;;;;3.50;0.65;;;6.70;83.30;;;;;;4966220;28;87829;-71
2023/03/11 03:22:57;;;;;;;2.28;0.50;;;6.70;82.70;;;;;;4979477;28;87440;-70
2023/03/11 03:25:22;;;;;;;2.30;0.70;;;6.70;82.70;;;;;;4975368;28;89684;-72
2023/03/11 03:27:49;;;;;;;2.33;0.68;;;6.60;84.00;;;;;;4977729;28;88746;-71
2023/03/11 03:30:15;;;;;;;2.17;0.77;;;6.50;84.50;;;;;;4999396;28;87842;-71
2023/03/11 03:32:41;;;;;;;5.93;0.90;;;6.50;85.50;;;;;;4988717;28;86969;-70
2023/03/11 03:35:07;;;;;;;2.78;0.65;;;6.40;85.20;;;;;;4987402;28;87976;-70
2023/03/11 03:37:34;;;;;;;3.55;0.63;;;6.40;86.50;;;;;;4976475;28;87812;-70
2023/03/11 03:40:00;;;;;;;3.35;1.10;;;6.30;86.20;;;;;;4974550;28;87634;-69
2023/03/11 03:42:27;;;;;;;2.22;0.90;;;6.40;86.30;;;;;;4981777;28;86754;-69
2023/03/11 03:44:52;;;;;;;2.60;0.73;;;6.40;85.50;;;;;;4989989;28;87509;-70
2023/03/11 03:47:19;;;;;;;2.30;0.98;;;6.50;85.80;;;;;;4981626;28;87150;-69
2023/03/11 03:49:44;;;;;;;4.57;0.93;;;6.50;85.40;;;;;;4979899;28;88159;-70
2023/03/11 03:52:10;;;;;;;3.42;1.20;;;6.50;85.40;;;;;;4974332;28;87104;-69
2023/03/11 03:54:36;;;;;;;3.25;0.65;;;6.50;85.60;;;;;;4979831;28;87989;-69
2023/03/11 03:57:03;;;;;;;2.83;0.70;;;6.50;85.30;;;;;;4968124;28;87845;-69
2023/03/11 03:59:28;;;;;;;2.10;0.75;;;6.40;84.80;;;;;;4971976;28;88007;-68
2023/03/11 04:01:54;;;;;;;2.55;0.73;;;6.20;86.10;;;;;;4974492;28;87652;-70
2023/03/11 04:04:20;;;;;;;2.33;0.68;;;6.20;86.00;;;;;;4974255;28;88051;-71
2023/03/11 04:06:45;;;;;;;2.63;0.70;;;6.20;86.10;;;;;;4993435;28;87786;-71
2023/03/11 04:09:11;;;;;;;2.63;0.80;;;6.10;86.40;;;;;;4975819;28;88172;-69
2023/03/11 04:11:37;;;;;;;1.77;0.70;;;6.10;86.30;;;;;;4984383;28;88427;-69
2023/03/11 04:14:04;;;;;;;3.20;1.10;;;6.10;86.90;;;;;;4974435;28;88010;-70
2023/03/11 04:16:30;;;;;;;1.98;0.68;;;6.00;87.00;;;;;;4987693;28;88121;-70
2023/03/11 04:18:55;;;;;;;2.38;0.75;;;6.00;87.30;;;;;;4980815;28;88642;-69
2023/03/11 04:21:21;;;;;;;3.58;1.02;;;6.10;87.60;;;;;;4989863;28;87464;-70
2023/03/11 04:23:47;;;;;;;3.25;1.02;;;6.00;87.80;;;;;;4973738;28;87546;-71
2023/03/11 04:26:12;;;;;;;3.47;0.80;;;5.90;88.00;;;;;;4974520;28;88282;-70
2023/03/11 04:28:38;;;;;;;2.90;0.90;;;5.90;87.00;;;;;;4971115;28;87385;-71
2023/03/11 04:31:04;;;;;;;2.15;0.80;;;5.80;87.10;;;;;;4972799;28;86542;-71
2023/03/11 04:33:30;;;;;;;2.08;0.80;;;5.60;86.80;;;;;;4977288;28;87661;-71
2023/03/11 04:35:56;;;;;;;1.85;0.63;;;5.60;86.60;;;;;;4980956;28;87762;-71
2023/03/11 04:38:22;;;;;;;2.38;0.70;;;5.50;86.40;;;;;;4976168;28;89954;-72
2023/03/11 04:40:48;;;;;;;2.08;0.70;;;5.40;86.00;;;;;;4974282;28;88916;-69
2023/03/11 04:43:13;;;;;;;4.68;0.52;;;5.30;86.90;;;;;;4973500;28;87704;-69
2023/03/11 04:45:39;;;;;;;2.13;0.60;;;5.40;87.10;;;;;;4984394;28;87215;-70
2023/03/11 04:48:05;;;;;;;2.50;0.68;;;5.50;86.30;;;;;;4976097;28;87422;-69
2023/03/11 04:50:31;;;;;;;2.25;0.55;;;5.40;85.70;;;;;;4966184;28;87357;-70
2023/03/11 04:52:57;;;;;;;2.55;0.70;;;5.40;85.40;;;;;;4968696;28;87235;-71
2023/03/11 04:55:22;;;;;;;2.05;0.70;;;5.40;85.70;;;;;;4973828;28;87547;-71
2023/03/11 04:57:48;;;;;;;2.55;0.70;;;5.40;85.80;;;;;;4975894;28;87430;-71
2023/03/11 05:00:15;;;;;;;3.42;1.20;;;5.30;86.40;;;;;;4971519;28;88220;-71
2023/03/11 05:02:41;;;;;;;3.08;1.08;;;5.20;86.30;;;;;;4979727;28;90767;-69
2023/03/11 05:05:08;;;;;;;2.15;0.82;;;5.20;87.10;;;;;;4978914;28;89529;-70
2023/03/11 05:07:35;;;;;;;3.45;0.93;;;5.20;87.30;;;;;;4984275;28;87161;-70
2023/03/11 05:10:02;;;;;;;2.60;1.00;;;5.20;86.90;;;;;;4969916;28;88946;-70
2023/03/11 05:12:28;;;;;;;2.03;0.80;;;5.20;86.70;;;;;;4981715;28;87467;-70
2023/03/11 05:14:53;;;;;;;3.15;0.75;;;5.10;87.10;;;;;;4973757;28;88642;-71
2023/03/11 05:17:19;;;;;;;2.75;1.02;;;5.10;87.00;;;;;;4973099;28;87136;-70
2023/03/11 05:19:45;;;;;;;3.30;0.80;;;5.10;86.90;;;;;;4975128;28;87090;-69
2023/03/11 05:22:11;;;;;;;1.90;0.80;;;5.10;86.70;;;;;;4970259;28;89008;-71
2023/03/11 05:24:37;;;;;;;2.03;0.50;;;5.00;87.00;;;;;;4973352;28;89040;-71
2023/03/11 05:27:03;;;;;;;3.13;0.85;;;5.00;86.50;;;;;;4972597;28;88501;-68
2023/03/11 05:29:29;;;;;;;2.75;0.55;;;4.90;86.80;;;;;;4984418;28;87067;-70
2023/03/11 05:31:55;;;;;;;2.10;0.60;;;4.80;86.90;;;;;;4977293;28;87687;-69
2023/03/11 05:34:21;;;;;;;2.47;0.45;;;4.80;87.40;;;;;;4982874;28;87374;-70
2023/03/11 05:36:46;;;;;;;2.47;0.80;;;4.70;86.90;;;;;;4982916;28;87369;-71
2023/03/11 05:39:13;;;;;;;2.17;0.75;;;4.70;87.20;;;;;;4977437;28;87562;-69
2023/03/11 05:41:39;;;;;;;2.78;0.70;;;4.70;87.20;;;;;;4984219;28;88786;-68
2023/03/11 05:44:05;;;;;;;2.50;0.50;;;4.80;87.10;;;;;;4983944;28;87914;-68
2023/03/11 05:46:31;;;;;;;2.10;0.60;;;4.80;86.90;;;;;;4977807;28;87251;-70
2023/03/11 05:48:58;;;;;;;2.75;0.70;;;4.80;87.30;;;;;;4990361;28;87743;-72
2023/03/11 05:51:25;;;;;;;1.98;0.60;;;4.90;87.40;;;;;;4977943;28;89165;-69
2023/03/11 05:53:50;;;;;;;2.83;0.70;;;5.00;86.50;;;;;;4979941;28;88285;-70
2023/03/11 05:56:21;;;;;;;2.05;0.65;;;5.00;87.10;;;;;;4978370;28;87031;-69
2023/03/11 05:58:47;;;;;;;2.30;0.70;;;4.90;86.50;;;;;;4979613;28;87094;-70
2023/03/11 06:01:18;;;;;;;1.92;0.60;;;4.90;86.30;;;;;;4982287;28;87637;-69
2023/03/11 06:03:44;;;;;;;2.20;0.77;;;5.00;86.50;;;;;;4982532;28;87737;-68
2023/03/11 06:06:11;;;;;;;2.72;0.73;;;5.10;86.00;;;;;;4991313;28;87354;-69
2023/03/11 06:08:37;;;;;;;4.15;0.80;;;5.10;85.70;;;;;;4995842;28;86660;-68
2023/03/11 06:11:03;;;;;;;2.90;0.73;;;5.10;85.50;;;;;;4980736;28;89096;-68
2023/03/11 06:13:29;;;;;;;2.35;0.63;;;5.20;85.20;;;;;;4957264;28;89061;-72
2023/03/11 06:15:55;;;;;;;2.72;0.70;;;5.10;84.60;;;;;;4968325;28;89963;-69
2023/03/11 06:18:20;;;;;;;2.67;0.93;;;5.10;85.30;;;;;;4979186;28;87790;-69
2023/03/11 06:20:46;;;;;;;3.63;1.00;;;4.90;85.60;;;;;;4978193;28;87591;-73
2023/03/11 06:23:12;;;;;;;3.35;1.05;;;4.60;87.30;;;;;;4966289;28;88795;-72
2023/03/11 06:25:38;;;;;;;3.67;1.20;;;4.40;88.20;;;;;;4972227;28;87900;-69
2023/03/11 06:28:03;;;;;;;4.40;1.05;;;4.40;89.50;;;;;;4962163;28;87179;-74
2023/03/11 06:30:29;;;;;;;3.10;1.10;;;4.40;90.00;;;;;;4967863;28;88765;-70
2023/03/11 06:32:55;;;;;;;2.85;0.93;;;4.50;89.90;;;;;;4968287;28;89104;-68
2023/03/11 06:35:21;;;;;;;4.55;1.33;;;4.50;89.80;;;;;;4967125;28;87636;-74
2023/03/11 06:37:46;;;;;;;4.05;1.15;;;4.40;90.20;;;;;;4960178;28;88741;-67
2023/03/11 06:40:12;;;;;;;4.07;1.23;;;4.50;89.80;;;;;;4971430;28;89122;-73
2023/03/11 06:42:38;;;;;;;3.35;1.13;;;4.40;89.50;;;;;;4977518;28;87988;-69
2023/03/11 06:45:04;;;;;;;3.88;1.42;;;4.30;89.80;;;;;;4958035;28;89211;-72
2023/03/11 06:47:31;;;;;;;4.95;1.58;;;4.30;90.20;;;;;;4968205;28;89443;-69
2023/03/11 06:49:56;;;;;;;4.88;1.60;;;4.40;90.00;;;;;;4960800;28;89092;-73
2023/03/11 06:52:22;;;;;;;3.47;1.40;;;4.40;90.10;;;;;;4966996;28;88930;-72
2023/03/11 06:54:48;;;;;;;3.55;1.40;;;4.40;89.60;;;;;;4966034;28;88616;-70
2023/03/11 06:57:14;;;;;;;5.38;1.80;;;4.50;90.00;;;;;;4970104;28;88256;-70
2023/03/11 06:59:40;;;;;;;4.95;1.42;;;4.50;90.20;;;;;;4963369;28;88225;-69
2023/03/11 07:02:12;;;;;;;3.90;1.50;;;4.60;90.20;;;;;;4962186;28;87959;-69
2023/03/11 07:04:37;;;;;;;3.50;1.33;;;4.80;90.20;;;;;;4968279;28;88135;-69
2023/03/11 07:07:03;;;;;;;9.55;1.38;;;4.80;90.00;;;;;;4976531;28;88844;-71
2023/03/11 07:09:29;;;;;;;4.40;1.20;;;4.90;89.10;;;;;;4985296;28;87554;-71
2023/03/11 07:11:54;;;;;;;5.82;1.20;;;4.90;88.90;;;;;;4968437;28;87938;-69
2023/03/11 07:14:20;;;;;;;3.78;1.60;;;4.90;88.00;;;;;;4973674;28;87388;-70
2023/03/11 07:16:46;;;;;;;4.47;1.30;;;4.90;89.60;;;;;;4970528;28;87665;-70
2023/03/11 07:19:12;;;;;;;5.07;1.30;;;4.90;88.70;;;;;;4973544;28;87884;-70
2023/03/11 07:21:39;;;;;;;2.53;0.90;;;5.00;88.10;;;;;;4976673;28;87683;-70
2023/03/11 07:24:06;;;;;;;7.68;1.50;;;5.00;87.90;;;;;;4985877;28;87254;-70
2023/03/11 07:26:34;;;;;;;5.07;1.42;;;5.00;87.90;;;;;;4977364;28;87341;-69
2023/03/11 07:29:00;;;;;;;4.55;1.27;;;5.00;87.80;;;;;;4969554;28;89311;-71
2023/03/11 07:31:29;;;;;;;4.57;1.58;;;5.00;88.00;;;;;;4972715;28;89170;-72
2023/03/11 07:34:00;;;;;;;2.67;1.23;;;5.10;88.00;;;;;;4977637;28;87110;-71
2023/03/11 07:36:27;;;;;;;5.97;2.92;;;5.20;86.30;;;;;;4984422;28;87838;-70
2023/03/11 07:39:02;;;;;;;8.50;3.00;;;5.20;86.30;;;;;;4970869;28;88115;-70
2023/03/11 07:41:30;;;;;;;5.10;1.83;;;5.40;86.50;;;;;;4972397;28;88221;-75
2023/03/11 07:43:58;;;;;;;7.45;1.73;;;5.50;86.60;;;;;;4979878;28;87347;-69
2023/03/11 07:46:24;;;;;;;2.92;1.40;;;5.70;86.90;;;;;;4969006;28;88103;-70
2023/03/11 07:48:51;;;;;;;4.05;1.65;;;5.80;86.10;;;;;;4968653;28;88727;-69
2023/03/11 07:51:23;;;;;;;3.28;1.23;;;5.90;85.10;;;;;;4973144;28;87871;-68
2023/03/11 07:53:51;;;;;;;3.45;1.10;;;5.90;84.00;;;;;;4974241;28;88294;-70
2023/03/11 07:56:17;;;;;;;3.95;1.38;;;6.00;83.80;;;;;;4980378;28;87698;-71
2023/03/11 07:58:43;;;;;;;2.50;0.60;;;6.10;83.40;;;;;;4961792;28;89792;-71
2023/03/11 08:01:22;;;;;;;2.13;0.60;;;6.10;81.10;;;;;;4969888;28;89318;-71
2023/03/11 08:03:55;;;;;;;2.03;0.35;;;5.90;81.50;;;;;;4958307;28;90704;-70
2023/03/11 08:06:23;;;;;;;1.88;0.30;;;5.90;80.40;;;;;;4965771;28;89494;-71
2023/03/11 08:08:50;;;;;;;1.38;0.30;;;5.80;79.80;;;;;;4973980;28;88753;-70
2023/03/11 08:11:16;;;;;;;2.05;0.50;;;5.80;79.50;;;;;;4972437;28;88432;-70
2023/03/11 08:13:44;;;;;;;1.98;0.32;;;5.90;80.40;;;;;;4984968;28;87744;-72
2023/03/11 08:16:13;;;;;;;1.60;0.50;;;5.90;80.00;;;;;;4973398;28;89277;-68
2023/03/11 08:18:39;;;;;;;2.10;0.40;;;5.90;80.20;;;;;;4968686;28;89478;-73
2023/03/11 08:21:06;;;;;;;3.15;0.40;;;5.80;80.00;;;;;;4969939;28;89815;-71
2023/03/11 08:23:32;;;;;;;3.72;0.60;;;5.80;78.80;;;;;;4968849;28;87692;-68
2023/03/11 08:25:58;;;;;;;3.45;0.40;;;5.70;79.70;;;;;;4969117;28;87541;-72
2023/03/11 08:28:23;;;;;;;1.85;0.40;;;5.70;80.10;;;;;;4970443;28;88010;-68
2023/03/11 08:30:49;;;;;;;3.28;0.60;;;5.60;80.10;;;;;;4971505;28;88393;-71
2023/03/11 08:33:15;;;;;;;2.25;0.45;;;5.60;80.00;;;;;;4966702;28;88400;-73
2023/03/11 08:35:40;;;;;;;3.38;0.70;;;5.60;80.10;;;;;;4972669;28;86420;-68
2023/03/11 08:38:06;;;;;;;3.22;0.40;;;5.70;80.00;;;;;;4971235;28;88751;-68
2023/03/11 08:40:32;;;;;;;2.47;0.20;;;5.90;79.50;;;;;;4971448;28;87863;-67
2023/03/11 08:42:57;;;;;;;2.80;0.38;;;5.90;77.70;;;;;;4976955;28;88681;-71
2023/03/11 08:45:23;;;;;;;1.58;0.20;;;6.00;78.50;;;;;;4968003;28;87367;-70
2023/03/11 08:47:49;;;;;;;3.17;0.40;;;5.90;77.60;;;;;;4974714;28;88793;-70
2023/03/11 08:50:17;;;;;;;2.75;0.35;;;6.00;78.90;;;;;;4967864;28;87174;-69
2023/03/11 08:52:43;;;;;;;2.70;0.32;;;6.10;78.30;;;;;;4963573;28;87104;-70
2023/03/11 08:55:13;;;;;;;3.45;0.52;;;6.10;77.80;;;;;;4967514;28;87610;-70
2023/03/11 08:57:39;;;;;;;;;;;6.10;76.80;;;;;;4966037;28;88947;-67
2023/03/11 09:00:07;;;;;;;1.45;0.20;;;6.20;77.40;;;;;;4983157;28;87768;-70
2023/03/11 09:02:32;;;;;;;2.35;0.25;;;6.30;77.80;;;;;;4966213;28;87089;-70
2023/03/11 09:04:58;;;;;;;1.85;0.40;;;6.40;76.30;;;;;;4981963;28;88742;-72
2023/03/11 09:07:24;;;;;;;1.52;0.22;;;6.50;76.90;;;;;;4980909;28;89180;-70
2023/03/11 09:09:49;;;;;;;2.50;0.30;;;6.60;76.60;;;;;;4975227;28;89064;-73
2023/03/11 09:12:15;;;;;;;2.70;0.40;;;6.80;77.10;;;;;;4977553;28;87851;-73
2023/03/11 09:14:41;;;;;;;2.25;0.50;;;6.90;76.70;;;;;;4978393;28;87145;-70
2023/03/11 09:17:08;;;;;;;2.70;0.30;;;7.10;74.10;;;;;;4984739;28;87689;-70
2023/03/11 09:19:34;;;;;;;2.20;0.20;;;7.50;73.10;;;;;;4976535;28;87429;-70
2023/03/11 09:22:00;;;;;;;2.17;0.25;;;7.80;72.90;;;;;;4973647;28;87227;-71
2023/03/11 09:24:26;;;;;;;1.13;0.20;;;7.80;71.30;;;;;;4969968;28;87120;-71
2023/03/11 09:26:52;;;;;;;3.10;0.30;;;7.90;72.10;;;;;;4974258;28;87114;-71
2023/03/11 09:29:18;;;;;;;1.73;0.13;;;7.90;71.00;;;;;;4977306;28;88410;-68
2023/03/11 09:31:44;;;;;;;1.63;0.22;;;8.00;70.90;;;;;;4972891;28;90042;-68
2023/03/11 09:34:13;;;;;;;1.83;0.30;;;8.20;70.40;;;;;;4968342;28;87041;-71
2023/03/11 09:36:42;;;;;;;3.47;0.22;;;8.20;70.90;;;;;;4968108;28;88215;-68
2023/03/11 09:39:08;;;;;;;1.67;0.30;;;8.20;71.10;;;;;;4964891;28;88359;-70
2023/03/11 09:41:46;;;;;;;2.97;0.30;;;8.40;71.70;;;;;;4966152;28;88736;-70
2023/03/11 09:44:20;;;;;;;5.00;0.30;;;8.60;69.20;;;;;;4966364;28;88474;-70
2023/03/11 09:47:09;;;;;;;1.58;0.30;;;8.70;70.20;;;;;;4965220;28;89825;-70
2023/03/11 09:49:49;;;;;;;1.75;0.30;;;8.70;68.40;;;;;;4971074;28;87242;-70
2023/03/11 09:52:25;;;;;;;2.20;0.25;;;9.10;69.20;;;;;;4974331;28;87460;-70
2023/03/11 09:54:54;;;;;;;1.23;0.20;;;9.50;68.30;;;;;;4966949;28;87503;-71
2023/03/11 09:57:31;;;;;;;2.78;0.30;;;9.80;66.10;;;;;;4966585;28;89958;-71
2023/03/11 10:00:00;;;;;;;2.45;0.30;;;10.00;65.40;;;;;;4971266;28;89139;-70
2023/03/11 10:02:26;;;;;;;1.58;0.25;;;9.90;65.20;;;;;;4974375;28;87680;-71
2023/03/11 10:05:20;;;;;;;3.95;0.40;;;10.00;65.10;;;;;;4975299;28;90402;-69
2023/03/11 10:07:52;;;;;;;4.25;0.30;;;10.00;66.30;;;;;;4977109;28;88106;-70
2023/03/11 10:10:19;;;;;;;2.10;0.30;;;10.10;66.30;;;;;;4972726;28;87892;-69
2023/03/11 10:13:08;;;;;;;2.78;0.30;;;10.10;64.20;;;;;;4978763;28;87871;-70
2023/03/11 10:16:21;;;;;;;3.60;0.65;;;10.00;67.50;;;;;;4978321;28;87849;-70
2023/03/11 10:19:07;;;;;;;2.00;0.40;;;10.00;66.00;;;;;;4969356;28;88462;-73
2023/03/11 10:22:04;;;;;;;2.20;0.40;;;9.90;64.10;;;;;;4978383;28;87831;-71
2023/03/11 10:24:56;;;;;;;3.72;1.08;;;9.80;70.80;;;;;;4972616;28;90098;-69
2023/03/11 10:27:46;;;;;;;1.63;0.30;;;9.80;64.00;;;;;;4973944;28;87220;-70
2023/03/11 10:30:26;;;;;;;2.13;0.30;;;9.60;63.10;;;;;;4966524;28;88913;-69
2023/03/11 10:32:56;;;;;;;2.20;0.20;;;9.40;63.50;;;;;;4979334;28;88083;-70
2023/03/11 10:35:28;;;;;;;3.08;0.20;;;9.30;63.00;;;;;;4971172;28;88066;-73
2023/03/11 10:38:16;;;;;;;2.03;0.30;;;9.40;69.50;;;;;;4980817;28;87850;-75
2023/03/11 10:40:44;;;;;;;3.35;0.30;;;9.70;64.00;;;;;;4973958;28;88143;-69
2023/03/11 10:43:30;;;;;;;2.25;0.50;;;9.70;66.80;;;;;;4971092;28;87228;-72
2023/03/11 10:45:56;;;;;;;2.88;0.40;;;9.70;62.60;;;;;;4972591;28;88176;-71
2023/03/11 10:48:25;;;;;;;3.50;0.28;;;9.70;62.30;;;;;;4968543;28;89138;-72
2023/03/11 10:51:02;;;;;;;1.33;0.20;;;9.60;61.90;;;;;;4970038;28;88533;-69
2023/03/11 10:53:29;;;;;;;1.63;0.25;;;9.50;60.70;;;;;;4979641;28;89447;-71
2023/03/11 10:55:57;;;;;;;1.13;0.20;;;9.70;61.30;;;;;;4972718;28;89111;-71
2023/03/11 10:58:28;;;;;;;5.43;0.32;;;9.90;58.80;;;;;;4973967;28;87203;-71
2023/03/11 11:01:14;;;;;;;2.63;0.35;;;10.00;64.20;;;;;;4967581;28;89419;-69
2023/03/11 11:03:42;;;;;;;3.30;0.30;;;10.40;62.00;;;;;;4973079;28;88318;-71
2023/03/11 11:06:32;;;;;;;2.28;0.20;;;10.50;65.00;;;;;;4974080;28;87689;-74
2023/03/11 11:09:10;;;;;;;0.80;0.20;;;10.80;62.80;;;;;;4976030;28;88586;-71
2023/03/11 11:11:38;;;;;;;1.85;0.20;;;10.80;57.50;;;;;;4971992;28;87561;-70
2023/03/11 11:14:04;;;;;;;1.20;0.20;;;10.70;57.40;;;;;;4967510;28;87284;-69
2023/03/11 11:16:32;;;;;;;1.38;0.17;;;10.70;56.10;;;;;;4970398;28;90057;-70
2023/03/11 11:19:12;;;;;;;1.95;0.50;;;10.80;56.10;;;;;;4967392;28;88452;-71
2023/03/11 11:21:42;;;;;;;1.10;0.30;;;10.70;56.20;;;;;;4982700;28;88119;-71
2023/03/11 11:24:24;;;;;;;5.13;0.40;;;10.60;55.90;;;;;;4969390;28;89295;-68
2023/03/11 11:27:03;;;;;;;1.15;0.20;;;10.70;55.20;;;;;;4978645;28;87263;-72
2023/03/11 11:29:29;;;;;;;2.55;0.30;;;10.80;56.90;;;;;;4976099;28;87725;-70
2023/03/11 11:32:22;;;;;;;1.38;0.25;;;10.70;57.50;;;;;;4974732;28;87746;-70
2023/03/11 11:35:01;;;;;;;3.00;0.20;;;10.50;54.00;;;;;;4968148;28;88266;-69
2023/03/11 11:37:30;;;;;;;3.08;0.20;;;10.40;55.60;;;;;;4983824;28;87492;-72
2023/03/11 11:40:27;;;;;;;2.15;0.20;;;10.60;55.30;;;;;;4983207;28;87543;-70
2023/03/11 11:43:15;;;;;;;1.70;0.25;;;10.70;55.30;;;;;;4970109;28;89007;-72
2023/03/11 11:46:15;;;;;;;1.30;0.20;;;10.70;57.60;;;;;;4970611;28;89369;-72
2023/03/11 11:48:47;;;;;;;2.63;0.20;;;10.80;57.00;;;;;;4962819;28;87434;-70
2023/03/11 11:51:35;;;;;;;6.60;0.30;;;11.00;56.00;;;;;;4969751;28;87178;-70
2023/03/11 11:54:10;;;;;;;2.22;0.20;;;11.20;56.90;;;;;;4977215;28;88315;-72
2023/03/11 11:56:35;;;;;;;2.22;0.20;;;11.40;54.10;;;;;;4967496;28;87549;-71
2023/03/11 11:59:01;;;;;;;1.80;0.22;;;11.60;55.00;;;;;;4970611;28;87448;-72
2023/03/11 12:01:40;;;;;;;1.58;0.35;;;11.60;54.90;;;;;;4972911;28;86319;-71
2023/03/11 12:04:30;;;;;;;2.67;0.20;;;11.60;54.40;;;;;;4981315;28;88085;-70
2023/03/11 12:07:14;;;;;;;;;;;11.90;52.90;;;;;;4976539;28;87793;-69
2023/03/11 12:10:05;;;;;;;1.85;0.32;;;12.10;50.70;;;;;;4970901;28;88245;-70
2023/03/11 12:12:31;;;;;;;3.92;0.20;;;11.90;50.60;;;;;;4981774;28;87353;-71
2023/03/11 12:15:23;;;;;;;1.67;0.22;;;11.80;51.30;;;;;;4968230;28;87655;-70
2023/03/11 12:17:50;;;;;;;1.25;0.32;;;11.80;51.90;;;;;;4975784;28;87786;-71
2023/03/11 12:20:35;;;;;;;1.58;0.20;;;12.20;52.50;;;;;;4970081;28;87921;-69
2023/03/11 12:23:18;;;;;;;1.52;0.30;;;12.30;52.80;;;;;;4963200;28;88549;-70
2023/03/11 12:25:49;;;;;;;1.60;0.30;;;12.30;53.30;;;;;;4969257;28;88250;-68
2023/03/11 12:28:21;;;;;;;1.73;0.38;;;12.30;52.40;;;;;;4975886;28;87900;-72
2023/03/11 12:30:54;;;;;;;1.10;0.20;;;12.40;51.50;;;;;;4977214;28;87432;-67
2023/03/11 12:33:44;;;;;;;1.42;0.30;;;12.30;51.70;;;;;;4965224;28;88898;-68
2023/03/11 12:36:31;;;;;;;2.53;0.30;;;12.30;50.50;;;;;;4963340;28;89066;-68
2023/03/11 12:38:59;;;;;;;2.05;0.20;;;12.20;52.50;;;;;;4965444;28;88904;-68
2023/03/11 12:41:38;;;;;;;1.52;0.20;;;12.20;50.70;;;;;;4977058;28;87211;-70
2023/03/11 12:44:28;;;;;;;3.28;0.40;;;12.10;51.30;;;;;;4963689;28;88691;-70
2023/03/11 12:46:56;;;;;;;2.42;0.30;;;12.20;53.50;;;;;;4966466;28;87628;-72
2023/03/11 12:49:23;;;;;;;2.40;0.47;;;12.10;52.90;;;;;;4972810;28;88609;-70
2023/03/11 12:52:14;;;;;;;2.42;0.28;;;12.40;53.60;;;;;;4964409;28;87324;-69
2023/03/11 12:54:46;;;;;;;2.05;0.20;;;12.50;53.90;;;;;;4972481;28;86691;-70
2023/03/11 12:57:17;;;;;;;2.35;0.30;;;12.60;52.20;;;;;;4972617;28;89047;-72
2023/03/11 13:00:01;;;;;;;2.92;0.30;;;12.60;52.90;;;;;;4973443;28;87202;-69
2023/03/11 13:02:41;;;;;;;0.98;0.20;;;12.30;52.50;;;;;;4970053;28;88682;-68
2023/03/11 13:05:09;;;;;;;1.30;0.30;;;12.00;53.80;;;;;;4959802;28;87816;-69
2023/03/11 13:07:50;;;;;;;1.70;0.30;;;11.60;54.90;;;;;;4968529;28;87761;-73